createdAt,value
2023-05-06T00:00:14.269Z,100
2023-05-06T00:05:14.286Z,100
2023-05-06T00:11:03.978Z,100
2023-05-06T00:21:04.007Z,100
2023-05-06T00:26:14.286Z,100
2023-05-06T00:31:14.293Z,100
2023-05-06T00:37:03.975Z,100
2023-05-06T00:42:04.024Z,100
2023-05-06T00:47:04.016Z,100
2023-05-06T00:52:14.275Z,100
2023-05-06T00:58:04.011Z,100
2023-05-06T01:03:14.344Z,100
2023-05-06T01:08:14.278Z,100
2023-05-06T01:14:03.982Z,100
2023-05-06T01:19:04.007Z,100
2023-05-06T01:24:04.001Z,100
2023-05-06T01:29:04.023Z,100
2023-05-06T01:34:14.318Z,100
2023-05-06T01:39:14.318Z,100
2023-05-06T01:45:04.002Z,100
2023-05-06T01:50:04.021Z,100
2023-05-06T01:55:14.326Z,100
2023-05-06T02:01:04.029Z,100
2023-05-06T02:06:14.326Z,100
2023-05-06T02:12:04.002Z,100
2023-05-06T02:17:14.330Z,100
2023-05-06T02:22:14.322Z,100
2023-05-06T02:27:14.329Z,100
2023-05-06T02:33:04.090Z,100
2023-05-06T02:38:14.272Z,100
2023-05-06T02:43:14.331Z,100
2023-05-06T02:48:14.325Z,100
2023-05-06T02:54:04.024Z,100
2023-05-06T02:59:14.297Z,100
2023-05-06T03:05:03.993Z,100
2023-05-06T03:10:04.048Z,100
2023-05-06T03:15:14.345Z,100
2023-05-06T03:21:04.084Z,100
2023-05-06T03:26:14.313Z,100
2023-05-06T03:31:14.407Z,100
2023-05-06T03:37:04.020Z,100
2023-05-06T03:42:04.045Z,100
2023-05-06T03:47:14.324Z,100
2023-05-06T03:53:04.026Z,100
2023-05-06T03:58:14.333Z,100
2023-05-06T04:03:14.439Z,100
2023-05-06T04:09:04.000Z,100
2023-05-06T04:14:04.035Z,100
2023-05-06T04:19:06.330Z,100
2023-05-06T04:24:14.304Z,100
2023-05-06T04:29:14.304Z,100
2023-05-06T04:35:04.030Z,100
2023-05-06T04:40:04.027Z,100
2023-05-06T04:45:14.244Z,100
2023-05-06T04:50:14.259Z,100
2023-05-06T04:56:03.984Z,100
2023-05-06T05:01:04.008Z,100
2023-05-06T05:06:04.044Z,100
2023-05-06T05:11:14.306Z,100
2023-05-06T05:16:14.348Z,100
2023-05-06T05:22:03.954Z,100
2023-05-06T05:27:04.029Z,100
2023-05-06T05:32:14.343Z,100
2023-05-06T05:37:14.330Z,100
2023-05-06T05:43:04.037Z,100
2023-05-06T05:48:14.315Z,100
2023-05-06T05:53:14.337Z,100
2023-05-06T05:59:03.985Z,100
2023-05-06T06:04:14.307Z,100
2023-05-06T06:09:14.302Z,100
2023-05-06T06:15:04.142Z,100
2023-05-06T06:20:14.307Z,100
2023-05-06T06:25:14.338Z,99.3
2023-05-06T06:31:04.039Z,95
2023-05-06T06:36:14.273Z,89.9
2023-05-06T06:42:03.991Z,84.4
2023-05-06T06:47:04.054Z,85.5
2023-05-06T06:52:04.064Z,80.9
2023-05-06T06:57:14.343Z,78.9
2023-05-06T07:03:04.150Z,77.2
2023-05-06T07:08:14.252Z,73.6
2023-05-06T07:13:14.326Z,68.8
2023-05-06T07:18:14.373Z,68.5
2023-05-06T07:24:04.008Z,66.2
2023-05-06T07:29:04.069Z,65.5
2023-05-06T07:34:14.364Z,60.1
2023-05-06T07:40:04.002Z,57.8
2023-05-06T07:45:04.025Z,58.2
2023-05-06T07:50:14.286Z,49.4
2023-05-06T07:55:14.362Z,45.4
2023-05-06T08:01:04.002Z,46.3
2023-05-06T08:06:04.089Z,45.9
2023-05-06T08:11:14.334Z,43.9
2023-05-06T08:17:03.993Z,44.4
2023-05-06T08:22:04.073Z,41.8
2023-05-06T08:27:04.046Z,39.7
2023-05-06T08:32:04.240Z,42.8
2023-05-06T08:37:14.332Z,41.7
2023-05-06T08:42:14.396Z,38.9
2023-05-06T08:48:04.109Z,37.9
2023-05-06T08:53:04.023Z,41.5
2023-05-06T08:58:04.110Z,38.8
2023-05-06T09:03:14.377Z,43
2023-05-06T09:08:14.323Z,42.8
2023-05-06T09:13:14.526Z,39.6
2023-05-06T09:19:04.069Z,40.8
2023-05-06T09:35:04.054Z,37.5
2023-05-06T09:40:04.165Z,35.5
2023-05-06T09:45:14.343Z,35.1
2023-05-06T09:51:04.078Z,34.6
2023-05-06T09:56:04.099Z,35.2
2023-05-06T10:01:19.264Z,36.7
2023-05-06T10:07:04.105Z,34.4
2023-05-06T10:12:14.368Z,33.4
2023-05-06T10:17:14.415Z,34.3
2023-05-06T10:23:04.112Z,32.3
2023-05-06T10:28:30.944Z,33.8
2023-05-06T10:34:04.162Z,33
2023-05-06T10:39:14.465Z,34.7
2023-05-06T10:44:14.366Z,36.1
2023-05-06T10:50:04.109Z,36.1
2023-05-06T10:55:14.357Z,35.1
2023-05-06T11:01:04.115Z,34.4
2023-05-06T11:06:04.094Z,35.8
2023-05-06T11:11:14.406Z,35.1
2023-05-06T11:17:04.169Z,36.4
2023-05-06T11:22:04.147Z,35.9
2023-05-06T11:27:14.429Z,37.6
2023-05-06T11:33:05.563Z,40.1
2023-05-06T11:38:14.440Z,39.5
2023-05-06T11:44:04.163Z,38.3
2023-05-06T11:49:04.185Z,41.8
2023-05-06T11:54:14.450Z,42.2
2023-05-06T12:00:04.095Z,41.9
2023-05-06T12:05:04.204Z,41
2023-05-06T12:10:04.101Z,38.4
2023-05-06T12:15:08.729Z,39.9
2023-05-06T12:20:14.429Z,39.4
2023-05-06T12:25:14.441Z,40.5
2023-05-06T12:31:04.108Z,43
2023-05-06T12:36:04.125Z,42.4
2023-05-06T12:46:14.382Z,41
2023-05-06T12:51:14.473Z,40.1
2023-05-06T12:56:14.711Z,40.9
2023-05-06T13:02:04.245Z,41
2023-05-06T13:07:14.401Z,39.2
2023-05-06T13:13:04.182Z,41.5
2023-05-06T13:18:04.188Z,40.1
2023-05-06T13:23:04.172Z,41
2023-05-06T13:28:14.416Z,42.9
2023-05-06T13:34:04.130Z,46
2023-05-06T13:39:04.179Z,46
2023-05-06T13:44:04.175Z,44.7
2023-05-06T13:49:14.480Z,45.2
2023-05-06T13:55:20.626Z,47.1
2023-05-06T14:00:28.090Z,45.2
2023-05-06T14:06:20.632Z,44.7
2023-05-06T14:11:20.627Z,45.2
2023-05-06T14:16:27.478Z,47.2
2023-05-06T14:22:20.634Z,45.6
2023-05-06T14:27:27.364Z,55.8
2023-05-06T14:32:27.381Z,67.1
2023-05-06T14:38:20.604Z,69.7
2023-05-06T14:43:20.734Z,68.9
2023-05-06T14:48:28.079Z,69.5
2023-05-06T14:54:20.606Z,70.1
2023-05-06T14:59:27.455Z,70.8
2023-05-06T15:04:27.488Z,70.4
2023-05-06T15:10:20.589Z,71
2023-05-06T15:15:20.611Z,70.3
2023-05-06T15:20:27.933Z,73
2023-05-06T15:31:27.494Z,77.1
2023-05-06T15:37:20.621Z,74.7
2023-05-06T15:42:20.633Z,73.7
2023-05-06T15:47:28.388Z,75.8
2023-05-06T15:53:20.608Z,74
2023-05-06T15:58:20.774Z,75.7
2023-05-06T16:03:28.292Z,79.3
2023-05-06T16:09:20.656Z,78
2023-05-06T16:14:27.420Z,80.4
2023-05-06T16:19:28.136Z,81.2
2023-05-06T16:25:20.695Z,83.8
2023-05-06T16:30:27.468Z,84.5
2023-05-06T16:35:27.601Z,85.3
2023-05-06T16:40:28.288Z,86.6
2023-05-06T16:46:27.513Z,87.7
2023-05-06T16:51:27.909Z,86.8
2023-05-06T16:56:36.765Z,88.9
2023-05-06T17:02:20.687Z,88.9
2023-05-06T17:07:20.625Z,89
2023-05-06T17:12:27.412Z,96.6
2023-05-06T17:17:27.470Z,100
2023-05-06T17:22:27.503Z,100
2023-05-06T17:28:20.653Z,100
2023-05-06T17:33:20.631Z,100
2023-05-06T17:38:20.640Z,100
2023-05-06T17:43:20.983Z,100
2023-05-06T17:48:20.706Z,100
2023-05-06T17:53:20.713Z,100
2023-05-06T17:58:27.410Z,100
2023-05-06T18:03:29.398Z,100
2023-05-06T18:09:20.722Z,100
2023-05-06T18:14:27.440Z,100
2023-05-06T18:20:20.710Z,100
2023-05-06T18:25:27.443Z,100
2023-05-06T18:31:20.708Z,100
2023-05-06T18:36:27.791Z,100
2023-05-06T18:42:20.641Z,100
2023-05-06T18:47:20.716Z,100
2023-05-06T18:52:27.793Z,100
2023-05-06T18:57:28.189Z,100
2023-05-06T19:03:20.702Z,100
2023-05-06T19:08:28.123Z,100
2023-05-06T19:13:28.302Z,100
2023-05-06T19:19:20.670Z,100
2023-05-06T19:29:28.186Z,100
2023-05-06T19:35:20.655Z,100
2023-05-06T19:40:20.674Z,100
2023-05-06T19:51:27.572Z,100
2023-05-06T19:56:28.324Z,100
2023-05-06T20:02:20.661Z,100
2023-05-06T20:07:28.041Z,100
2023-05-06T20:13:20.737Z,100
2023-05-06T20:18:20.691Z,100
2023-05-06T20:23:27.470Z,100
2023-05-06T20:29:20.659Z,100
2023-05-06T20:34:20.664Z,100
2023-05-06T20:39:20.756Z,100
2023-05-06T20:44:27.451Z,100
2023-05-06T20:49:27.528Z,100
2023-05-06T20:54:27.904Z,100
2023-05-06T21:00:20.719Z,100
2023-05-06T21:05:27.855Z,100
2023-05-06T21:11:20.660Z,100
2023-05-06T21:21:27.482Z,100
2023-05-06T21:26:28.064Z,100
2023-05-06T21:32:20.693Z,100
2023-05-06T21:37:20.745Z,100
2023-05-06T21:42:27.828Z,100
2023-05-06T21:47:27.944Z,100
2023-05-06T21:53:20.681Z,100
2023-05-06T21:58:20.779Z,100
2023-05-06T22:03:27.669Z,100
2023-05-06T22:09:20.701Z,100
2023-05-06T22:14:24.322Z,100
2023-05-06T22:19:20.748Z,100
2023-05-06T22:24:27.847Z,100
2023-05-06T22:29:28.394Z,100
2023-05-06T22:35:20.691Z,100
2023-05-06T22:40:20.726Z,100
2023-05-06T22:45:20.776Z,100
2023-05-06T22:50:27.535Z,100
2023-05-06T22:55:27.543Z,100
2023-05-06T23:00:28.297Z,100
2023-05-06T23:11:20.753Z,100
2023-05-06T23:16:28.219Z,100
2023-05-06T23:22:20.754Z,100
2023-05-06T23:27:27.506Z,100
2023-05-06T23:32:27.936Z,100
2023-05-06T23:38:20.697Z,100
2023-05-06T23:43:27.491Z,100
2023-05-06T23:48:27.871Z,100
2023-05-06T23:54:20.714Z,100
2023-05-06T23:59:28.072Z,100
